Airfield :
LOGIN :

Register | Disclaimer

   EN    FR    IT 

 










Legend :    VFR   Marginal VFR   IFR   Intensive IFR   Very Intensive IFR
Visi :
Ceiling :
>= 8 km
>= 3000ft
5 to 8 km
1000 to 3000 ft
1500m to 5 km
500 to 1000 ft
800 to 1500m
200 to 500 ft
< 800m
< 200 ft
Symbols :   Thunderstorms  Fog  Heavy snow  Heavy precipitations  Wind > 20 kt
SIGMETs :     Misc.  Thunderstorms  Icing  Turbulence  Mountain Waves  Volcanic Ashes







- Airport Elevation : 1791 ft
- IATA code : AOT


LIMW - Aosta

CURRENT METAR :
  • 181620Z AUTO 11013KT 9999 FEW120/// 27/14 Q1014

EXPIRED METARs :
  • 181520Z AUTO 10017KT 9999 NCD 28/13 Q1014
  • 181450Z AUTO 10016KT 9999 NCD 29/14 Q1014
  • 181420Z AUTO 10015KT 9999 FEW200/// 28/14 Q1014
  • 181350Z AUTO 10014KT 9999 NCD 28/14 Q1014

TAF TAF LIMW
Valid from the 18 at 15:00 until the 19 at 00:00 UTC


181400Z 1815/1824 10015KT 9999 SCT050
PROB40
TEMPO 1815/1820 TSRA
BECMG 1819/1821 VRB05KT
No reported NOTAMs for that airfield.



MET'MAP, your aeronautical weather chart ! - Copyright ORBIFLY December 2007 - Disclaimer

ORBIFLY MET'MAP TEAM :

Programming & Development : Alexandra Zaïnal
Concept & Development : Baudouin d'Aumeries
Co-Development & Prog : Marc-Olivier Méhu
Technical & hardware support : Manuel Goepfert

Contact : metmap@orbifly.com




SOURCES & CREDITS :

   NOAA